Huvudsida
METAR-TAF:

METAR-TAF

Flygplatser :

Lusaka International Airport

Lusaka, Zambia

latitud: 15-19-51S, longitud: 028-27-09E, höjd: 1152 m

Aktuellt väderrapport

Denna rapport gjordes för 1 timme och 56 minuter sedan, klockan 08:00 UTC
Vind 15 kt från ost
Temperatur 23°C
Fuktighet 38%
Tryck 1026 hPa
Sikt: 9000 m

METAR: FLKK 190800Z 10015KT 9000 NSC 23/08 Q1026

Tid: 11:56 (09:56 UTC)


TAF: saknas

Aktuella väderrapporter och prognoser från 4000 flygplatser (METAR- och TAF-rapporter).

De tillgängliga stationerna syns som gula och röda prickar på kartan.

För musen över prickarna för att se namnen på stationerna.

Klicka sedan för att få väderrapporter och prognoser.

För att ändra kartan: Klicka på de gröna knapparna med ett svart kors på för att zooma in; den gröna knappen med ett streck på för att zooma ut; eller på de gröna pilarna för angränsande kartor.


METAR-TAF: